Flight Track Log - Related Links

Times and Time Zones

All times are in EDT time to prevent confusion due to time zone crossing. See the THY1074 flight status page for this flight to view local times or setup timezone preferences in your user account.

Time Position Orientation Groundspeed Altitude Reporting Facility
EDT Latitude Longitude Course Direction KTS MPH feet Rate Location/Type
03:49AM 41.3438 22.9020 91° East  Level Estimated
03:50AM 41.3387 23.0402 93° East  Level Estimated
03:51AM 41.3335 23.1783 93° East  Level Estimated
03:52AM 41.3281 23.3164 93° East  Level Estimated
03:53AM 41.3225 23.4544 93° East  Level Estimated
03:54AM 41.3168 23.5925 93° East  Level Estimated
03:55AM 41.3109 23.7305 93° East  Level Estimated
03:56AM 41.3048 23.8685 93° East  Level Estimated
03:57AM 41.2986 24.0065 93° East  Level Estimated
03:58AM 41.2922 24.1444 93° East  Level Estimated
03:59AM 41.2856 24.2823 94° East  Level Estimated
04:00AM 41.2789 24.4202 94° East  Level Estimated
04:01AM 41.2720 24.5580 94° East  Level Estimated
04:02AM 41.2650 24.6959 94° East  Level Estimated
04:03AM 41.2578 24.8337 94° East  Level Estimated
04:04AM 41.2504 24.9714 94° East  Level Estimated
04:05AM 41.2429 25.1091 94° East  Level Estimated
04:06AM 41.2352 25.2468 94° East  Level Estimated
04:07AM 41.2273 25.3845 94° East  Level Estimated
04:08AM 41.2193 25.5222 94° East  Level Estimated
04:09AM 41.2111 25.6597 94° East  Level Estimated
04:10AM 41.2027 25.7973 95° East  Level Estimated
04:11AM 41.1942 25.9349 95° East  Level Estimated
04:12AM 41.1855 26.0723 95° East  Level Estimated
04:13AM 41.1767 26.2098 95° East  Level Estimated
04:14AM 41.1676 26.3472 95° East  Level Estimated
04:15AM 41.1585 26.4846 95° East  Level Estimated
04:16AM 41.1491 26.6219 95° East  Level Estimated
04:17AM 41.1396 26.7592 95° East  Level Estimated
04:18AM 41.1300 26.8965 95° East  Level Estimated
04:19AM 41.1201 27.0337 95° East  Level Estimated
04:20AM 41.1101 27.1709 95° East  Level Estimated
04:21AM 41.1000 27.3080 96° East  Level Estimated
04:22AM 41.0896 27.4451 96° East  Level Estimated
04:23AM 41.0792 27.5822 96° East  Level Estimated
04:24AM 41.0685 27.7192 96° East  Level Estimated
04:25AM 41.0577 27.8562 96° East  Level Estimated
04:26AM 41.0467 27.9931 96° East  Level Estimated
04:27AM 41.0356 28.1299 96° East  Level Estimated
04:28AM 41.0243 28.2668 96° East  Level Estimated
04:29AM 41.0129 28.4036 96° East  Level Estimated
04:30AM 41.0013 28.5403 96° East  Level Estimated
04:31AM 40.9895 28.6770 96° East  Level Estimated
04:32AM 40.9776 28.8136 97° East  Level Estimated
04:33AM 40.9769 28.8211 97° East  Level Estimated
04:34AM 40.9769 28.8211 21° North  Level Estimated
04:35AM 40.9769 28.8211 21° North  Level Estimated
04:36AM 40.9769 28.8211 21° North  Level Estimated
04:37AM 40.9769 28.8211 21° North  Level Estimated
04:38AM 40.9769 28.8211 21° North  Level Estimated
04:39AM 40.9769 28.8211 21° North  Level Estimated
04:40AM 40.9769 28.8211 21° North  Level Estimated
04:41AM 40.9769 28.8211 21° North  Level Estimated
04:42AM 40.9769 28.8211 21° North  Level Estimated
04:43AM 40.9769 28.8211 21° North  Level Estimated
04:44AM 40.9769 28.8211 21° North  Level Estimated
04:45AM 40.9769 28.8211 21° North  Level Estimated
04:46AM 40.9769 28.8211 21° North  Level Estimated
04:47AM 40.9769 28.8211 21° North  Level Estimated
04:48AM 40.9769 28.8211 21° North  Level Estimated

Login

Don't have an account? Register now (free) for customized features, flight alerts, and more!